Airfield :
LOGIN :

Register | Disclaimer

   EN    FR    IT 

 










Legend :    VFR   Marginal VFR   IFR   Intensive IFR   Very Intensive IFR
Visi :
Ceiling :
>= 8 km
>= 3000ft
5 to 8 km
1000 to 3000 ft
1500m to 5 km
500 to 1000 ft
800 to 1500m
200 to 500 ft
< 800m
< 200 ft
Symbols :   Thunderstorms  Fog  Heavy snow  Heavy precipitations  Wind > 20 kt
SIGMETs :     Misc.  Thunderstorms  Icing  Turbulence  Mountain Waves  Volcanic Ashes






- Airport Elevation : 238 ft
- IATA code : FAB


EGLF - Farnborough

CURRENT METAR :
  • 280850Z 17010KT 140V200 9999 -RA SCT017 BKN032 05/03 Q1009

EXPIRED METARs :
  • 280820Z 16008KT 140V200 9999 -RA FEW018 BKN032 04/03 Q1010
  • 280750Z 15005KT 120V180 9999 -RA FEW018 BKN032 03/01 Q1011
  • 280720Z AUTO 14007KT 9999 -DZ FEW037/// SCT046/// 03/01 Q1011
  • 280650Z AUTO 15006KT 9999 FEW043/// 02/00 Q1011
  • 280620Z AUTO 15008KT 9999 NCD 02/00 Q1012

TAF TAF EGLF
Valid from the 28 at 09:00 until the 28 at 18:00 UTC


280809Z 2809/2818 17012KT 9999 SCT020
BECMG 2809/2811 17018G28KT BKN010
TEMPO 2809/2810 7000 -RA
TEMPO 2810/2817 4000 RADZ BKN006
PROB30
TEMPO 2813/2817 BKN003
BECMG 2814/2816 23015G25KT
ATIS : +44 09063 800 400 (*282)



MET'MAP, your aeronautical weather chart ! - Copyright ORBIFLY December 2007 - Disclaimer

ORBIFLY MET'MAP TEAM :

Programming & Development : Alexandra Zaïnal
Concept & original design : Baudouin d'Aumeries
Assistance for programming : Marc-Olivier Méhu
Technical & hardware support : Manuel Goepfert

Contact : metmap@orbifly.com




SOURCES & CREDITS :

   NOAA